sensor_id;sensor_type;location;lat;lon;timestamp;P1;durP1;ratioP1;P2;durP2;ratioP2
75691;SDS011;64307;52.508;6.090;2023-10-08T00:01:15;18.92;;;4.97;;
75691;SDS011;64307;52.508;6.090;2023-10-08T00:04:47;20.02;;;5.13;;
75691;SDS011;64307;52.508;6.090;2023-10-08T00:08:11;18.42;;;5.00;;
75691;SDS011;64307;52.508;6.090;2023-10-08T00:11:35;19.35;;;6.20;;
75691;SDS011;64307;52.508;6.090;2023-10-08T00:14:59;17.77;;;5.57;;
75691;SDS011;64307;52.508;6.090;2023-10-08T00:18:23;18.75;;;5.40;;
75691;SDS011;64307;52.508;6.090;2023-10-08T00:21:47;23.20;;;4.93;;
75691;SDS011;64307;52.508;6.090;2023-10-08T00:25:12;20.67;;;6.35;;
75691;SDS011;64307;52.508;6.090;2023-10-08T00:28:37;21.30;;;5.88;;
75691;SDS011;64307;52.508;6.090;2023-10-08T00:32:05;17.90;;;5.72;;
75691;SDS011;64307;52.508;6.090;2023-10-08T00:35:29;19.52;;;5.32;;
75691;SDS011;64307;52.508;6.090;2023-10-08T00:38:53;23.10;;;5.35;;
75691;SDS011;64307;52.508;6.090;2023-10-08T00:42:17;23.45;;;6.85;;
75691;SDS011;64307;52.508;6.090;2023-10-08T00:45:53;17.30;;;5.13;;
75691;SDS011;64307;52.508;6.090;2023-10-08T00:49:25;22.02;;;6.68;;
75691;SDS011;64307;52.508;6.090;2023-10-08T00:52:56;23.70;;;5.85;;
75691;SDS011;64307;52.508;6.090;2023-10-08T00:56:26;18.65;;;7.00;;
75691;SDS011;64307;52.508;6.090;2023-10-08T00:59:51;21.38;;;7.03;;
75691;SDS011;64307;52.508;6.090;2023-10-08T01:03:18;20.77;;;7.07;;
75691;SDS011;64307;52.508;6.090;2023-10-08T01:06:52;22.33;;;6.00;;
75691;SDS011;64307;52.508;6.090;2023-10-08T01:10:17;26.15;;;6.85;;
75691;SDS011;64307;52.508;6.090;2023-10-08T01:13:41;18.25;;;6.68;;
75691;SDS011;64307;52.508;6.090;2023-10-08T01:17:09;20.75;;;6.82;;
75691;SDS011;64307;52.508;6.090;2023-10-08T01:20:39;15.05;;;4.63;;
75691;SDS011;64307;52.508;6.090;2023-10-08T01:24:04;10.25;;;3.65;;
75691;SDS011;64307;52.508;6.090;2023-10-08T01:27:30;9.88;;;3.05;;
75691;SDS011;64307;52.508;6.090;2023-10-08T01:30:54;9.45;;;2.83;;
75691;SDS011;64307;52.508;6.090;2023-10-08T01:34:19;9.65;;;3.08;;
75691;SDS011;64307;52.508;6.090;2023-10-08T01:37:48;8.38;;;3.05;;
75691;SDS011;64307;52.508;6.090;2023-10-08T01:41:13;7.40;;;3.33;;
75691;SDS011;64307;52.508;6.090;2023-10-08T01:44:45;6.18;;;2.22;;
75691;SDS011;64307;52.508;6.090;2023-10-08T01:48:13;4.85;;;3.65;;
75691;SDS011;64307;52.508;6.090;2023-10-08T01:51:40;6.57;;;3.20;;
75691;SDS011;64307;52.508;6.090;2023-10-08T01:55:05;7.00;;;2.30;;
75691;SDS011;64307;52.508;6.090;2023-10-08T01:58:29;5.20;;;1.10;;
75691;SDS011;64307;52.508;6.090;2023-10-08T02:01:56;3.85;;;0.70;;
75691;SDS011;64307;52.508;6.090;2023-10-08T02:05:19;4.63;;;0.80;;
75691;SDS011;64307;52.508;6.090;2023-10-08T02:08:45;3.58;;;0.95;;
75691;SDS011;64307;52.508;6.090;2023-10-08T02:12:09;3.33;;;0.85;;
75691;SDS011;64307;52.508;6.090;2023-10-08T02:15:34;2.72;;;1.45;;
75691;SDS011;64307;52.508;6.090;2023-10-08T02:18:58;2.40;;;1.85;;
75691;SDS011;64307;52.508;6.090;2023-10-08T02:22:22;3.35;;;1.50;;
75691;SDS011;64307;52.508;6.090;2023-10-08T02:25:46;3.13;;;1.35;;
75691;SDS011;64307;52.508;6.090;2023-10-08T02:29:10;4.10;;;1.75;;
75691;SDS011;64307;52.508;6.090;2023-10-08T02:32:35;3.70;;;1.30;;
75691;SDS011;64307;52.508;6.090;2023-10-08T02:35:59;3.35;;;0.95;;
75691;SDS011;64307;52.508;6.090;2023-10-08T02:39:24;3.58;;;0.88;;
75691;SDS011;64307;52.508;6.090;2023-10-08T02:42:56;3.25;;;1.60;;
75691;SDS011;64307;52.508;6.090;2023-10-08T02:49:47;2.75;;;1.50;;
75691;SDS011;64307;52.508;6.090;2023-10-08T02:53:11;2.10;;;0.95;;
75691;SDS011;64307;52.508;6.090;2023-10-08T02:56:43;1.88;;;0.73;;
75691;SDS011;64307;52.508;6.090;2023-10-08T03:00:09;2.92;;;0.73;;
75691;SDS011;64307;52.508;6.090;2023-10-08T03:03:37;2.75;;;0.63;;
75691;SDS011;64307;52.508;6.090;2023-10-08T03:07:01;4.65;;;1.63;;
75691;SDS011;64307;52.508;6.090;2023-10-08T03:10:25;3.53;;;1.35;;
75691;SDS011;64307;52.508;6.090;2023-10-08T03:13:51;1.40;;;0.55;;
75691;SDS011;64307;52.508;6.090;2023-10-08T03:20:49;2.10;;;0.52;;
75691;SDS011;64307;52.508;6.090;2023-10-08T03:24:20;1.70;;;0.50;;
75691;SDS011;64307;52.508;6.090;2023-10-08T03:27:44;2.80;;;0.40;;
75691;SDS011;64307;52.508;6.090;2023-10-08T03:31:08;2.17;;;0.60;;
75691;SDS011;64307;52.508;6.090;2023-10-08T03:34:43;1.38;;;0.43;;
75691;SDS011;64307;52.508;6.090;2023-10-08T03:38:08;2.25;;;0.70;;
75691;SDS011;64307;52.508;6.090;2023-10-08T03:41:38;2.33;;;0.68;;
75691;SDS011;64307;52.508;6.090;2023-10-08T03:45:06;3.13;;;1.17;;
75691;SDS011;64307;52.508;6.090;2023-10-08T03:48:31;2.17;;;0.68;;
75691;SDS011;64307;52.508;6.090;2023-10-08T03:51:56;2.25;;;0.70;;
75691;SDS011;64307;52.508;6.090;2023-10-08T03:55:20;2.30;;;1.25;;
75691;SDS011;64307;52.508;6.090;2023-10-08T03:58:44;1.90;;;0.60;;
75691;SDS011;64307;52.508;6.090;2023-10-08T04:02:08;2.00;;;1.27;;
75691;SDS011;64307;52.508;6.090;2023-10-08T04:05:36;1.67;;;0.55;;
75691;SDS011;64307;52.508;6.090;2023-10-08T04:09:00;2.25;;;1.10;;
75691;SDS011;64307;52.508;6.090;2023-10-08T04:12:33;1.33;;;0.52;;
75691;SDS011;64307;52.508;6.090;2023-10-08T04:15:57;1.77;;;0.52;;
75691;SDS011;64307;52.508;6.090;2023-10-08T04:19:23;1.67;;;0.47;;
75691;SDS011;64307;52.508;6.090;2023-10-08T04:23:04;2.63;;;1.35;;
75691;SDS011;64307;52.508;6.090;2023-10-08T04:26:31;2.00;;;0.50;;
75691;SDS011;64307;52.508;6.090;2023-10-08T04:29:58;1.88;;;0.63;;
75691;SDS011;64307;52.508;6.090;2023-10-08T04:33:28;1.67;;;0.40;;
75691;SDS011;64307;52.508;6.090;2023-10-08T04:36:53;2.88;;;0.60;;
75691;SDS011;64307;52.508;6.090;2023-10-08T04:40:18;2.47;;;1.25;;
75691;SDS011;64307;52.508;6.090;2023-10-08T04:43:45;2.50;;;1.20;;
75691;SDS011;64307;52.508;6.090;2023-10-08T04:47:09;1.77;;;0.68;;
75691;SDS011;64307;52.508;6.090;2023-10-08T04:50:36;2.53;;;0.73;;
75691;SDS011;64307;52.508;6.090;2023-10-08T04:54:08;4.30;;;1.60;;
75691;SDS011;64307;52.508;6.090;2023-10-08T04:57:40;2.63;;;1.15;;
75691;SDS011;64307;52.508;6.090;2023-10-08T05:01:11;2.88;;;1.88;;
75691;SDS011;64307;52.508;6.090;2023-10-08T05:04:48;1.90;;;0.80;;
75691;SDS011;64307;52.508;6.090;2023-10-08T05:08:30;2.38;;;0.63;;
75691;SDS011;64307;52.508;6.090;2023-10-08T05:12:13;3.72;;;0.80;;
75691;SDS011;64307;52.508;6.090;2023-10-08T05:15:37;5.53;;;1.58;;
75691;SDS011;64307;52.508;6.090;2023-10-08T05:19:08;3.65;;;1.10;;
75691;SDS011;64307;52.508;6.090;2023-10-08T05:22:33;2.58;;;1.38;;
75691;SDS011;64307;52.508;6.090;2023-10-08T05:26:18;2.72;;;1.50;;
75691;SDS011;64307;52.508;6.090;2023-10-08T05:30:03;6.80;;;1.90;;
75691;SDS011;64307;52.508;6.090;2023-10-08T05:33:56;2.45;;;1.08;;
75691;SDS011;64307;52.508;6.090;2023-10-08T05:37:43;2.83;;;0.80;;
75691;SDS011;64307;52.508;6.090;2023-10-08T05:41:24;3.90;;;1.13;;
75691;SDS011;64307;52.508;6.090;2023-10-08T05:44:54;1.95;;;0.80;;
75691;SDS011;64307;52.508;6.090;2023-10-08T05:48:37;2.20;;;0.77;;
75691;SDS011;64307;52.508;6.090;2023-10-08T05:52:03;2.65;;;1.55;;
75691;SDS011;64307;52.508;6.090;2023-10-08T05:55:40;6.40;;;1.17;;
75691;SDS011;64307;52.508;6.090;2023-10-08T05:59:29;3.17;;;1.48;;
75691;SDS011;64307;52.508;6.090;2023-10-08T06:02:56;2.85;;;0.80;;
75691;SDS011;64307;52.508;6.090;2023-10-08T06:06:45;3.05;;;1.25;;
75691;SDS011;64307;52.508;6.090;2023-10-08T06:10:15;4.07;;;0.52;;
75691;SDS011;64307;52.508;6.090;2023-10-08T06:13:52;4.28;;;1.65;;
75691;SDS011;64307;52.508;6.090;2023-10-08T06:17:32;7.93;;;1.58;;
75691;SDS011;64307;52.508;6.090;2023-10-08T06:20:57;3.33;;;0.65;;
75691;SDS011;64307;52.508;6.090;2023-10-08T06:24:21;4.38;;;1.35;;
75691;SDS011;64307;52.508;6.090;2023-10-08T06:27:49;2.28;;;0.70;;
75691;SDS011;64307;52.508;6.090;2023-10-08T06:31:13;4.05;;;0.73;;
75691;SDS011;64307;52.508;6.090;2023-10-08T06:34:37;5.15;;;1.60;;
75691;SDS011;64307;52.508;6.090;2023-10-08T06:38:01;5.55;;;1.15;;
75691;SDS011;64307;52.508;6.090;2023-10-08T06:41:25;4.53;;;1.73;;
75691;SDS011;64307;52.508;6.090;2023-10-08T06:44:52;3.40;;;1.23;;
75691;SDS011;64307;52.508;6.090;2023-10-08T06:48:23;3.42;;;1.00;;
75691;SDS011;64307;52.508;6.090;2023-10-08T06:51:49;2.53;;;0.80;;
75691;SDS011;64307;52.508;6.090;2023-10-08T06:55:14;4.05;;;1.40;;
75691;SDS011;64307;52.508;6.090;2023-10-08T06:58:39;8.63;;;1.70;;
75691;SDS011;64307;52.508;6.090;2023-10-08T07:02:07;4.28;;;1.10;;
75691;SDS011;64307;52.508;6.090;2023-10-08T07:05:40;4.00;;;1.73;;
75691;SDS011;64307;52.508;6.090;2023-10-08T07:09:04;3.03;;;0.90;;
75691;SDS011;64307;52.508;6.090;2023-10-08T07:12:29;7.82;;;2.15;;
75691;SDS011;64307;52.508;6.090;2023-10-08T07:15:54;4.93;;;1.90;;
75691;SDS011;64307;52.508;6.090;2023-10-08T07:19:24;4.43;;;1.00;;
75691;SDS011;64307;52.508;6.090;2023-10-08T07:22:48;6.00;;;2.38;;
75691;SDS011;64307;52.508;6.090;2023-10-08T07:26:21;4.70;;;1.75;;
75691;SDS011;64307;52.508;6.090;2023-10-08T07:29:54;3.78;;;1.85;;
75691;SDS011;64307;52.508;6.090;2023-10-08T07:33:19;4.82;;;1.67;;
75691;SDS011;64307;52.508;6.090;2023-10-08T07:36:52;5.70;;;1.20;;
75691;SDS011;64307;52.508;6.090;2023-10-08T07:40:20;4.68;;;2.50;;
75691;SDS011;64307;52.508;6.090;2023-10-08T07:43:45;4.90;;;2.05;;
75691;SDS011;64307;52.508;6.090;2023-10-08T07:47:09;6.57;;;1.75;;
75691;SDS011;64307;52.508;6.090;2023-10-08T07:50:35;3.00;;;0.90;;
75691;SDS011;64307;52.508;6.090;2023-10-08T07:53:59;3.05;;;0.98;;
75691;SDS011;64307;52.508;6.090;2023-10-08T07:57:23;4.97;;;0.88;;
75691;SDS011;64307;52.508;6.090;2023-10-08T08:00:47;4.32;;;1.55;;
75691;SDS011;64307;52.508;6.090;2023-10-08T08:04:12;3.90;;;1.17;;
75691;SDS011;64307;52.508;6.090;2023-10-08T08:07:41;5.22;;;2.10;;
75691;SDS011;64307;52.508;6.090;2023-10-08T08:11:06;4.60;;;0.95;;
75691;SDS011;64307;52.508;6.090;2023-10-08T08:14:36;3.22;;;0.80;;
75691;SDS011;64307;52.508;6.090;2023-10-08T08:18:06;6.13;;;1.08;;
75691;SDS011;64307;52.508;6.090;2023-10-08T08:21:29;5.25;;;1.13;;
75691;SDS011;64307;52.508;6.090;2023-10-08T08:24:56;5.30;;;0.75;;
75691;SDS011;64307;52.508;6.090;2023-10-08T08:28:31;8.48;;;1.55;;
75691;SDS011;64307;52.508;6.090;2023-10-08T08:31:58;5.80;;;0.70;;
75691;SDS011;64307;52.508;6.090;2023-10-08T08:35:23;5.60;;;0.93;;
75691;SDS011;64307;52.508;6.090;2023-10-08T08:38:48;5.25;;;1.30;;
75691;SDS011;64307;52.508;6.090;2023-10-08T08:42:12;5.40;;;0.50;;
75691;SDS011;64307;52.508;6.090;2023-10-08T08:45:37;10.23;;;1.00;;
75691;SDS011;64307;52.508;6.090;2023-10-08T08:49:04;3.70;;;1.15;;
75691;SDS011;64307;52.508;6.090;2023-10-08T08:52:37;6.40;;;1.20;;
75691;SDS011;64307;52.508;6.090;2023-10-08T08:56:01;4.38;;;0.68;;
75691;SDS011;64307;52.508;6.090;2023-10-08T08:59:29;5.50;;;0.60;;
75691;SDS011;64307;52.508;6.090;2023-10-08T09:02:54;4.68;;;0.30;;
75691;SDS011;64307;52.508;6.090;2023-10-08T09:06:25;5.80;;;0.68;;
75691;SDS011;64307;52.508;6.090;2023-10-08T09:09:52;9.35;;;1.08;;
75691;SDS011;64307;52.508;6.090;2023-10-08T09:13:25;3.47;;;1.08;;
75691;SDS011;64307;52.508;6.090;2023-10-08T09:16:50;6.57;;;1.40;;
75691;SDS011;64307;52.508;6.090;2023-10-08T09:20:14;7.35;;;0.57;;
75691;SDS011;64307;52.508;6.090;2023-10-08T09:23:44;6.55;;;1.52;;
75691;SDS011;64307;52.508;6.090;2023-10-08T09:27:09;7.05;;;1.40;;
75691;SDS011;64307;52.508;6.090;2023-10-08T09:30:36;6.38;;;1.00;;
75691;SDS011;64307;52.508;6.090;2023-10-08T09:34:03;6.90;;;0.80;;
75691;SDS011;64307;52.508;6.090;2023-10-08T09:37:29;5.43;;;1.50;;
75691;SDS011;64307;52.508;6.090;2023-10-08T09:40:55;8.43;;;0.63;;
75691;SDS011;64307;52.508;6.090;2023-10-08T09:44:20;5.45;;;0.57;;
75691;SDS011;64307;52.508;6.090;2023-10-08T09:47:49;4.40;;;0.90;;
75691;SDS011;64307;52.508;6.090;2023-10-08T09:51:14;4.65;;;1.60;;
75691;SDS011;64307;52.508;6.090;2023-10-08T09:55:15;5.90;;;0.73;;
75691;SDS011;64307;52.508;6.090;2023-10-08T09:58:36;4.13;;;0.60;;
75691;SDS011;64307;52.508;6.090;2023-10-08T10:02:00;3.85;;;0.60;;
75691;SDS011;64307;52.508;6.090;2023-10-08T10:05:28;5.65;;;1.45;;
75691;SDS011;64307;52.508;6.090;2023-10-08T10:08:53;6.70;;;1.02;;
75691;SDS011;64307;52.508;6.090;2023-10-08T10:12:20;4.93;;;0.55;;
75691;SDS011;64307;52.508;6.090;2023-10-08T10:15:53;5.80;;;0.80;;
75691;SDS011;64307;52.508;6.090;2023-10-08T10:19:36;6.68;;;0.77;;
75691;SDS011;64307;52.508;6.090;2023-10-08T10:23:21;5.15;;;0.90;;
75691;SDS011;64307;52.508;6.090;2023-10-08T10:26:52;5.63;;;1.48;;
75691;SDS011;64307;52.508;6.090;2023-10-08T10:30:54;7.63;;;0.80;;
75691;SDS011;64307;52.508;6.090;2023-10-08T10:34:28;4.10;;;0.90;;
75691;SDS011;64307;52.508;6.090;2023-10-08T10:37:53;7.15;;;0.77;;
75691;SDS011;64307;52.508;6.090;2023-10-08T10:41:18;6.30;;;0.75;;
75691;SDS011;64307;52.508;6.090;2023-10-08T10:44:46;6.13;;;0.70;;
75691;SDS011;64307;52.508;6.090;2023-10-08T10:48:12;6.60;;;0.98;;
75691;SDS011;64307;52.508;6.090;2023-10-08T10:51:56;2.92;;;0.82;;
75691;SDS011;64307;52.508;6.090;2023-10-08T10:55:21;5.57;;;0.93;;
75691;SDS011;64307;52.508;6.090;2023-10-08T10:58:54;6.82;;;1.52;;
75691;SDS011;64307;52.508;6.090;2023-10-08T11:02:34;5.93;;;1.23;;
75691;SDS011;64307;52.508;6.090;2023-10-08T11:06:00;7.10;;;1.35;;
75691;SDS011;64307;52.508;6.090;2023-10-08T11:09:25;5.80;;;1.80;;
75691;SDS011;64307;52.508;6.090;2023-10-08T11:12:49;6.05;;;1.00;;
75691;SDS011;64307;52.508;6.090;2023-10-08T11:16:22;4.70;;;0.98;;
75691;SDS011;64307;52.508;6.090;2023-10-08T11:19:51;4.22;;;1.35;;
75691;SDS011;64307;52.508;6.090;2023-10-08T11:23:41;4.32;;;1.48;;
75691;SDS011;64307;52.508;6.090;2023-10-08T11:27:07;5.38;;;1.15;;
75691;SDS011;64307;52.508;6.090;2023-10-08T11:30:36;6.80;;;1.67;;
75691;SDS011;64307;52.508;6.090;2023-10-08T11:34:01;5.43;;;1.90;;
75691;SDS011;64307;52.508;6.090;2023-10-08T11:37:34;7.45;;;0.80;;
75691;SDS011;64307;52.508;6.090;2023-10-08T11:41:11;6.72;;;0.98;;
75691;SDS011;64307;52.508;6.090;2023-10-08T11:44:53;6.75;;;1.73;;
75691;SDS011;64307;52.508;6.090;2023-10-08T11:48:17;4.45;;;0.70;;
75691;SDS011;64307;52.508;6.090;2023-10-08T11:51:44;4.13;;;0.90;;
75691;SDS011;64307;52.508;6.090;2023-10-08T11:55:09;4.45;;;0.68;;
75691;SDS011;64307;52.508;6.090;2023-10-08T11:58:38;4.75;;;1.17;;
75691;SDS011;64307;52.508;6.090;2023-10-08T12:02:04;5.18;;;1.50;;
75691;SDS011;64307;52.508;6.090;2023-10-08T12:05:30;5.68;;;1.23;;
75691;SDS011;64307;52.508;6.090;2023-10-08T12:08:58;7.15;;;1.73;;
75691;SDS011;64307;52.508;6.090;2023-10-08T12:12:21;5.47;;;0.75;;
75691;SDS011;64307;52.508;6.090;2023-10-08T12:19:16;3.20;;;0.40;;
75691;SDS011;64307;52.508;6.090;2023-10-08T12:22:50;4.55;;;1.02;;
75691;SDS011;64307;52.508;6.090;2023-10-08T12:26:19;6.05;;;0.68;;
75691;SDS011;64307;52.508;6.090;2023-10-08T12:29:43;4.50;;;1.27;;
75691;SDS011;64307;52.508;6.090;2023-10-08T12:33:08;4.60;;;0.50;;
75691;SDS011;64307;52.508;6.090;2023-10-08T12:36:36;6.15;;;1.45;;
75691;SDS011;64307;52.508;6.090;2023-10-08T12:40:01;5.90;;;0.93;;
75691;SDS011;64307;52.508;6.090;2023-10-08T12:43:33;5.40;;;1.58;;
75691;SDS011;64307;52.508;6.090;2023-10-08T12:46:58;8.18;;;0.68;;
75691;SDS011;64307;52.508;6.090;2023-10-08T12:50:23;5.57;;;1.05;;
75691;SDS011;64307;52.508;6.090;2023-10-08T12:53:51;3.97;;;1.23;;
75691;SDS011;64307;52.508;6.090;2023-10-08T12:57:18;4.95;;;1.40;;
75691;SDS011;64307;52.508;6.090;2023-10-08T13:00:41;6.82;;;1.33;;
75691;SDS011;64307;52.508;6.090;2023-10-08T13:04:06;5.95;;;0.95;;
75691;SDS011;64307;52.508;6.090;2023-10-08T13:07:40;3.38;;;1.08;;
75691;SDS011;64307;52.508;6.090;2023-10-08T13:11:04;4.50;;;1.10;;
75691;SDS011;64307;52.508;6.090;2023-10-08T13:14:28;4.88;;;0.70;;
75691;SDS011;64307;52.508;6.090;2023-10-08T13:17:52;8.25;;;1.52;;
75691;SDS011;64307;52.508;6.090;2023-10-08T13:21:17;5.13;;;0.88;;
75691;SDS011;64307;52.508;6.090;2023-10-08T13:24:44;7.72;;;1.63;;
75691;SDS011;64307;52.508;6.090;2023-10-08T13:28:11;5.05;;;0.32;;
75691;SDS011;64307;52.508;6.090;2023-10-08T13:31:35;6.03;;;1.42;;
75691;SDS011;64307;52.508;6.090;2023-10-08T13:35:00;4.90;;;0.88;;
75691;SDS011;64307;52.508;6.090;2023-10-08T13:38:25;6.47;;;1.20;;
75691;SDS011;64307;52.508;6.090;2023-10-08T13:41:49;5.40;;;1.77;;
75691;SDS011;64307;52.508;6.090;2023-10-08T13:45:13;5.15;;;1.50;;
75691;SDS011;64307;52.508;6.090;2023-10-08T13:48:38;4.45;;;1.02;;
75691;SDS011;64307;52.508;6.090;2023-10-08T13:52:06;5.38;;;1.20;;
75691;SDS011;64307;52.508;6.090;2023-10-08T13:55:30;5.18;;;1.20;;
75691;SDS011;64307;52.508;6.090;2023-10-08T13:58:58;4.35;;;0.95;;
75691;SDS011;64307;52.508;6.090;2023-10-08T14:02:24;7.68;;;1.67;;
75691;SDS011;64307;52.508;6.090;2023-10-08T14:05:49;5.20;;;0.60;;
75691;SDS011;64307;52.508;6.090;2023-10-08T14:09:16;5.90;;;0.98;;
75691;SDS011;64307;52.508;6.090;2023-10-08T14:12:43;4.93;;;0.95;;
75691;SDS011;64307;52.508;6.090;2023-10-08T14:16:08;3.63;;;0.52;;
75691;SDS011;64307;52.508;6.090;2023-10-08T14:19:35;8.13;;;1.60;;
75691;SDS011;64307;52.508;6.090;2023-10-08T14:22:59;3.95;;;0.70;;
75691;SDS011;64307;52.508;6.090;2023-10-08T14:26:28;3.78;;;0.47;;
75691;SDS011;64307;52.508;6.090;2023-10-08T14:30:03;5.95;;;1.50;;
75691;SDS011;64307;52.508;6.090;2023-10-08T14:33:27;6.88;;;0.70;;
75691;SDS011;64307;52.508;6.090;2023-10-08T14:37:14;3.83;;;0.90;;
75691;SDS011;64307;52.508;6.090;2023-10-08T14:40:57;4.15;;;0.85;;
75691;SDS011;64307;52.508;6.090;2023-10-08T14:44:39;4.40;;;0.60;;
75691;SDS011;64307;52.508;6.090;2023-10-08T14:48:06;4.45;;;0.70;;
75691;SDS011;64307;52.508;6.090;2023-10-08T14:51:34;4.03;;;0.63;;
75691;SDS011;64307;52.508;6.090;2023-10-08T14:54:58;6.03;;;0.93;;
75691;SDS011;64307;52.508;6.090;2023-10-08T14:58:22;3.70;;;1.15;;
75691;SDS011;64307;52.508;6.090;2023-10-08T15:01:48;6.20;;;1.15;;
75691;SDS011;64307;52.508;6.090;2023-10-08T15:05:12;6.45;;;0.60;;
75691;SDS011;64307;52.508;6.090;2023-10-08T15:08:36;4.65;;;1.10;;
75691;SDS011;64307;52.508;6.090;2023-10-08T15:12:00;4.68;;;0.80;;
75691;SDS011;64307;52.508;6.090;2023-10-08T15:15:23;4.68;;;0.80;;
75691;SDS011;64307;52.508;6.090;2023-10-08T15:18:52;5.82;;;0.75;;
75691;SDS011;64307;52.508;6.090;2023-10-08T15:22:16;3.17;;;1.05;;
75691;SDS011;64307;52.508;6.090;2023-10-08T15:25:42;6.47;;;1.70;;
75691;SDS011;64307;52.508;6.090;2023-10-08T15:29:05;3.63;;;1.25;;
75691;SDS011;64307;52.508;6.090;2023-10-08T15:32:36;6.60;;;1.10;;
75691;SDS011;64307;52.508;6.090;2023-10-08T15:36:00;6.95;;;1.15;;
75691;SDS011;64307;52.508;6.090;2023-10-08T15:39:23;5.15;;;0.90;;
75691;SDS011;64307;52.508;6.090;2023-10-08T15:42:48;8.18;;;0.85;;
75691;SDS011;64307;52.508;6.090;2023-10-08T15:46:16;4.45;;;0.75;;
75691;SDS011;64307;52.508;6.090;2023-10-08T15:49:40;5.18;;;1.10;;
75691;SDS011;64307;52.508;6.090;2023-10-08T15:53:04;7.32;;;1.90;;
75691;SDS011;64307;52.508;6.090;2023-10-08T15:56:29;3.95;;;1.08;;
75691;SDS011;64307;52.508;6.090;2023-10-08T15:59:53;5.47;;;1.00;;
75691;SDS011;64307;52.508;6.090;2023-10-08T16:03:18;5.07;;;1.35;;
75691;SDS011;64307;52.508;6.090;2023-10-08T16:06:42;5.22;;;1.25;;
75691;SDS011;64307;52.508;6.090;2023-10-08T16:10:06;6.80;;;1.90;;
75691;SDS011;64307;52.508;6.090;2023-10-08T16:13:30;5.60;;;1.55;;
75691;SDS011;64307;52.508;6.090;2023-10-08T16:16:54;6.10;;;1.73;;
75691;SDS011;64307;52.508;6.090;2023-10-08T16:20:17;6.30;;;2.13;;
75691;SDS011;64307;52.508;6.090;2023-10-08T16:23:45;5.82;;;2.10;;
75691;SDS011;64307;52.508;6.090;2023-10-08T16:27:09;5.18;;;1.45;;
75691;SDS011;64307;52.508;6.090;2023-10-08T16:30:33;4.43;;;1.48;;
75691;SDS011;64307;52.508;6.090;2023-10-08T16:34:04;6.00;;;2.20;;
75691;SDS011;64307;52.508;6.090;2023-10-08T16:37:28;6.75;;;0.98;;
75691;SDS011;64307;52.508;6.090;2023-10-08T16:40:52;6.28;;;2.05;;
75691;SDS011;64307;52.508;6.090;2023-10-08T16:44:17;4.90;;;1.02;;
75691;SDS011;64307;52.508;6.090;2023-10-08T16:47:44;4.72;;;1.88;;
75691;SDS011;64307;52.508;6.090;2023-10-08T16:54:34;6.15;;;1.27;;
75691;SDS011;64307;52.508;6.090;2023-10-08T16:57:58;5.03;;;2.25;;
75691;SDS011;64307;52.508;6.090;2023-10-08T17:01:22;6.05;;;2.38;;
75691;SDS011;64307;52.508;6.090;2023-10-08T17:04:46;6.20;;;1.42;;
75691;SDS011;64307;52.508;6.090;2023-10-08T17:08:10;6.07;;;1.80;;
75691;SDS011;64307;52.508;6.090;2023-10-08T17:11:38;4.15;;;1.10;;
75691;SDS011;64307;52.508;6.090;2023-10-08T17:15:03;7.63;;;1.75;;
75691;SDS011;64307;52.508;6.090;2023-10-08T17:18:30;4.03;;;1.05;;
75691;SDS011;64307;52.508;6.090;2023-10-08T17:21:54;4.35;;;1.23;;
75691;SDS011;64307;52.508;6.090;2023-10-08T17:25:17;5.22;;;2.15;;
75691;SDS011;64307;52.508;6.090;2023-10-08T17:28:41;4.82;;;1.38;;
75691;SDS011;64307;52.508;6.090;2023-10-08T17:32:06;5.90;;;1.17;;
75691;SDS011;64307;52.508;6.090;2023-10-08T17:35:31;5.72;;;2.00;;
75691;SDS011;64307;52.508;6.090;2023-10-08T17:38:58;6.45;;;0.95;;
75691;SDS011;64307;52.508;6.090;2023-10-08T17:42:23;8.18;;;2.50;;
75691;SDS011;64307;52.508;6.090;2023-10-08T17:45:47;3.80;;;1.17;;
75691;SDS011;64307;52.508;6.090;2023-10-08T17:49:11;5.50;;;1.38;;
75691;SDS011;64307;52.508;6.090;2023-10-08T17:52:36;7.97;;;1.40;;
75691;SDS011;64307;52.508;6.090;2023-10-08T17:55:59;3.65;;;1.00;;
75691;SDS011;64307;52.508;6.090;2023-10-08T17:59:24;3.50;;;1.00;;
75691;SDS011;64307;52.508;6.090;2023-10-08T18:02:49;4.68;;;1.77;;
75691;SDS011;64307;52.508;6.090;2023-10-08T18:06:13;3.38;;;0.98;;
75691;SDS011;64307;52.508;6.090;2023-10-08T18:09:39;4.13;;;1.40;;
75691;SDS011;64307;52.508;6.090;2023-10-08T18:13:03;6.53;;;1.30;;
75691;SDS011;64307;52.508;6.090;2023-10-08T18:16:27;4.88;;;1.25;;
75691;SDS011;64307;52.508;6.090;2023-10-08T18:19:51;6.90;;;1.23;;
75691;SDS011;64307;52.508;6.090;2023-10-08T18:23:17;5.45;;;1.90;;
75691;SDS011;64307;52.508;6.090;2023-10-08T18:26:42;5.47;;;1.10;;
75691;SDS011;64307;52.508;6.090;2023-10-08T18:30:06;6.80;;;1.10;;
75691;SDS011;64307;52.508;6.090;2023-10-08T18:33:35;5.20;;;2.03;;
75691;SDS011;64307;52.508;6.090;2023-10-08T18:36:59;3.20;;;1.00;;
75691;SDS011;64307;52.508;6.090;2023-10-08T18:40:25;5.22;;;1.15;;
75691;SDS011;64307;52.508;6.090;2023-10-08T18:43:51;4.60;;;0.95;;
75691;SDS011;64307;52.508;6.090;2023-10-08T18:47:16;6.78;;;2.28;;
75691;SDS011;64307;52.508;6.090;2023-10-08T18:50:41;9.65;;;1.40;;
75691;SDS011;64307;52.508;6.090;2023-10-08T18:54:07;5.47;;;1.30;;
75691;SDS011;64307;52.508;6.090;2023-10-08T18:57:32;4.18;;;1.55;;
75691;SDS011;64307;52.508;6.090;2023-10-08T19:00:56;6.30;;;1.65;;
75691;SDS011;64307;52.508;6.090;2023-10-08T19:04:20;4.65;;;1.48;;
75691;SDS011;64307;52.508;6.090;2023-10-08T19:07:45;8.90;;;2.15;;
75691;SDS011;64307;52.508;6.090;2023-10-08T19:11:09;5.05;;;1.23;;
75691;SDS011;64307;52.508;6.090;2023-10-08T19:14:33;7.25;;;1.60;;
75691;SDS011;64307;52.508;6.090;2023-10-08T19:17:58;6.00;;;1.23;;
75691;SDS011;64307;52.508;6.090;2023-10-08T19:21:23;7.57;;;2.08;;
75691;SDS011;64307;52.508;6.090;2023-10-08T19:24:48;6.60;;;1.85;;
75691;SDS011;64307;52.508;6.090;2023-10-08T19:28:13;5.07;;;0.98;;
75691;SDS011;64307;52.508;6.090;2023-10-08T19:31:37;6.88;;;1.85;;
75691;SDS011;64307;52.508;6.090;2023-10-08T19:35:01;4.90;;;2.03;;
75691;SDS011;64307;52.508;6.090;2023-10-08T19:38:28;6.95;;;1.20;;
75691;SDS011;64307;52.508;6.090;2023-10-08T19:41:53;6.38;;;1.98;;
75691;SDS011;64307;52.508;6.090;2023-10-08T19:45:17;5.70;;;1.73;;
75691;SDS011;64307;52.508;6.090;2023-10-08T19:52:09;6.60;;;1.13;;
75691;SDS011;64307;52.508;6.090;2023-10-08T19:59:02;4.97;;;1.25;;
75691;SDS011;64307;52.508;6.090;2023-10-08T20:02:26;5.38;;;1.52;;
75691;SDS011;64307;52.508;6.090;2023-10-08T20:05:49;6.55;;;2.42;;
75691;SDS011;64307;52.508;6.090;2023-10-08T20:09:13;5.63;;;0.98;;
75691;SDS011;64307;52.508;6.090;2023-10-08T20:12:44;4.05;;;1.67;;
75691;SDS011;64307;52.508;6.090;2023-10-08T20:16:10;4.28;;;0.98;;
75691;SDS011;64307;52.508;6.090;2023-10-08T20:19:34;5.60;;;0.95;;
75691;SDS011;64307;52.508;6.090;2023-10-08T20:22:58;4.80;;;1.98;;
75691;SDS011;64307;52.508;6.090;2023-10-08T20:26:22;8.13;;;2.40;;
75691;SDS011;64307;52.508;6.090;2023-10-08T20:29:48;9.25;;;1.02;;
75691;SDS011;64307;52.508;6.090;2023-10-08T20:33:13;5.25;;;2.28;;
75691;SDS011;64307;52.508;6.090;2023-10-08T20:36:37;4.55;;;2.28;;
75691;SDS011;64307;52.508;6.090;2023-10-08T20:40:02;5.13;;;1.85;;
75691;SDS011;64307;52.508;6.090;2023-10-08T20:46:58;4.05;;;2.38;;
75691;SDS011;64307;52.508;6.090;2023-10-08T20:50:26;5.13;;;2.40;;
75691;SDS011;64307;52.508;6.090;2023-10-08T20:53:51;4.10;;;2.42;;
75691;SDS011;64307;52.508;6.090;2023-10-08T20:57:15;6.47;;;1.50;;
75691;SDS011;64307;52.508;6.090;2023-10-08T21:00:42;6.05;;;2.58;;
75691;SDS011;64307;52.508;6.090;2023-10-08T21:04:08;4.25;;;1.70;;
75691;SDS011;64307;52.508;6.090;2023-10-08T21:07:33;5.43;;;1.42;;
75691;SDS011;64307;52.508;6.090;2023-10-08T21:10:57;6.43;;;1.98;;